Terminal Aerodrome Forecast
Issued by NWS Goodland, KS

Home | Current Version | Previous Version | Text Only | Print | Product List | Glossary On
Versions: 1 2 3 4 5 6 7 8 9 10 11 12 13 14 15 16 17 18 19
000
FTUS43 KGLD 220526
TAFGLD
TAF
KGLD 220526Z 2206/2306 19011KT P6SM SCT250
     FM221000 VRB05KT P6SM SCT005 SCT250
      TEMPO 2212/2216 3SM BR BKN005
     FM222100 18012G20KT P6SM BKN250=

USA.gov is the U.S. government's official web portal to all federal, state and local government web resources and services.